METAR AND TAF INFORMATION
METAR FOR RJAA
ADDS - METARS form results

(1338 UTC 21 July 2018)
Data provider http://aviationweather.gov/adds/metars/
 
METAR text: RJAA 211330Z 21005KT 9999 FEW030 BKN/// 27/24 Q1010 NOSIG RMK 1CU030 A2984
Conditions at: RJAA (NARITA INTL , JP) observed 1330 UTC 21 July 2018
Temperature: 27.0°C (81°F)
Dewpoint: 24.0°C (75°F) [RH = 84%]
Pressure (altimeter): 29.82 inches Hg (1010.0 mb)
Winds: from the SSW (210 degrees) at 6 MPH (5 knots; 2.6 m/s)
Visibility: 6 or more miles (10+ km)
Ceiling: at least 12,000 feet AGL
Clouds: few clouds at 3000 feet AGL
Weather: no significant weather observed at this time

METAR text: RJAA 211300Z 20004KT 160V240 9999 FEW030 BKN/// 27/24 Q1010 NOSIG RMK 1CU030 A2984
Conditions at: RJAA (NARITA INTL , JP) observed 1300 UTC 21 July 2018
Temperature: 27.0°C (81°F)
Dewpoint: 24.0°C (75°F) [RH = 84%]
Pressure (altimeter): 29.82 inches Hg (1010.0 mb)
Winds: from the SSW (200 degrees) at 5 MPH (4 knots; 2.1 m/s)
Visibility: 6 or more miles (10+ km)
Ceiling: at least 12,000 feet AGL
Clouds: few clouds at 3000 feet AGL
Weather: no significant weather observed at this time

Forecast for: RJAA (NARITA INTL , JP)
Text: TAF RJAA 211105Z 2112/2218 18005KT 9999 FEW030
Forecast period: 1200 UTC 21 July 2018 to 1800 UTC 22 July 2018
Forecast type: FROM: standard forecast or significant change
Winds: from the S (180 degrees) at 6 MPH (5 knots; 2.6 m/s)
Visibility: 6 or more miles (10+ km)
Clouds: few clouds at 3000 feet AGL
Weather: no significant weather forecast for this period

 AIRPORT MAP

 RUNWAY INFORMATION
Runway 16L Runway length 7152 ft Runway width 196 ft
Runway elevation 135 ft Runway displaced threshold 190 ft Runway heading 150
Runway 34R Runway length 7152 ft Runway width 196 ft
Runway elevation 141 ft Runway displaced threshold 190 ft Runway heading 330
Runway 16R Runway length 13123 ft Runway width 196 ft
Runway elevation 130 ft Runway displaced threshold 0 ft Runway heading 150
Runway 34L Runway length 13123 ft Runway width 196 ft
Runway elevation 139 ft Runway displaced threshold 2460 ft Runway heading 330

 AIRPORT FREQUENCIES
Type APP Name TOKYO APP Frequency 124.4 MHZ
Type ATIS Name ATIS Frequency 128.25 MHZ
Type CLD Name CLNC DEL Frequency 121.9 MHZ
Type CLR Name CLNC DEL Frequency 121.65 MHZ
Type DEP Name TOKYO DEP Frequency 124.2 MHZ
Type GND Name Frequency 121.85 MHZ
Type GND Name GND Frequency 121.95 MHZ
Type RDR Name TOKYO RDR Frequency 120.2 MHZ
Type RMP Name RAMP Frequency 121.6 MHZ
Type RMP Name RAMP Frequency 121.75 MHZ
Type TCA Name TOKYO TCA Frequency 119.45 MHZ
Type TWR Name TWR Frequency 118.2 MHZ
Type TWR Name Frequency 118.35 MHZ

 AIRPORT NEAR NAVIGATION AIDS
Type VOR-DME Name Narita Frequency 117900 KHZ
Type VOR-DME Name Sakura Frequency 112700 KHZ



Powered by Virtual Airlines Manager [v2.6.2]